航空気象通報

ウインドサーファーのための航空気象通報による風予報です。

11/25-11/27の航空気象通報

2016年11月26日 00時26分20秒 | TAF
羽田空港
TAF RJTT 251105Z 2512/2618 36012KT 9999 FEW030
BECMG 2603/2606 10012KT
BECMG 2609/2612 34008KT
日本時間25日21時-26日12時:360度から12ノットの風
12-15時:風が変化
15-18時:100度から12ノットの風
18-21時:風が変化
21時-27日03時:340度から8ノットの風


静岡空港
TAF RJNS 251105Z 2512/2618 28010KT 9999 FEW020
BECMG 2518/2520 34004KT
BECMG 2600/2603 08006KT
BECMG 2609/2612 34004KT
日本時間25日21時-26日03時:280度から10ノットの風
03-05時:風が変化
05-09時:340度から4ノットの風
09-12時:風が変化
12-18時:080度から6ノットの風
18-21時:風が変化
21時-27日03時:340度から4ノットの風


福岡空港
TAF RJFF 251108Z 2512/2618 03005KT 9999 FEW035
BECMG 2512/2514 14005KT
BECMG 2603/2606 30005KT
BECMG 2612/2615 14003KT
日本時間25日21時:030度から5ノットの風
21-23時:風が変化
23時-26日12時:140度から5ノットの風
12-15時:風が変化
15-21時300度から5ノットの風
21-24時:風が変化
27日00-03時:140度から3ノットの風


那覇空港
TAF ROAH 251105Z 2512/2618 05008KT 9999 FEW030 BKN045
BECMG 2600/2603 11010KT
日本時間25日21時-26日09時:050度から8ノットの風
09-12時:風が変化
12時-27日03時:110度から10ノットの風


石垣空港
TAF ROIG 251107Z 2512/2618 08016KT 9999 FEW025 BKN040
BECMG 2609/2612 15012KT
日本時間25日21時-26日18時:080度から16ノットの風
18-21時:風が変化
21時-27日03時:150度から12ノットの風


マウイのカフルイ空港
PHOG 251135Z 2512/2612 06018G28KT P6SM VCSH SCT030 BKN050
FM252100 06020G30KT P6SM FEW035 SCT060
FM260800 06015G25KT P6SM SCT030 SCT050 AMD LTD TO VIS AND WIND TIL 251600
ハワイ時間25日02-11時:060度から18ノット、突風28ノット

11-22時:060度から20ノット、突風30ノット
22時-26日02時:060度から15ノット、突風25ノット


サイパン空港
TAF PGSN 251120Z 2512/2612 08010KT P6SM VCSH SCT024 BKN110
FM252300 08014KT P6SM VCSH SCT022
マリアナ時間25日22時-26日09時:080度から10ノットの風

09-22時:080度から14ノットの風

ジャンル:
お天気
コメント   この記事についてブログを書く
この記事をはてなブックマークに追加
« 11/23-11/25の航空気象通報 | トップ | 11/26-11/28の航空気象通報 »
最近の画像もっと見る

コメントを投稿

ブログ作成者から承認されるまでコメントは反映されません。

コメント利用規約に同意の上コメント投稿を行ってください。

数字4桁を入力し、投稿ボタンを押してください。

あわせて読む

トラックバック

この記事のトラックバック  Ping-URL
ブログ作成者から承認されるまでトラックバックは反映されません。
  • 30日以上前の記事に対するトラックバックは受け取らないよう設定されております。
  • 送信元の記事内容が半角英数のみのトラックバックは受け取らないよう設定されております。
  • このブログへのリンクがない記事からのトラックバックは受け取らないよう設定されております。
  • ※ブログ管理者のみ、編集画面で設定の変更が可能です。